createdAt,value
2017-02-07T00:00:36.692Z,74
2017-02-07T00:01:42.683Z,75
2017-02-07T00:02:48.698Z,74
2017-02-07T00:03:54.725Z,74
2017-02-07T00:05:00.983Z,74
2017-02-07T00:06:07.005Z,74
2017-02-07T00:07:13.030Z,74
2017-02-07T00:08:19.061Z,74
2017-02-07T00:09:23.967Z,74
2017-02-07T00:10:29.982Z,74
2017-02-07T00:11:35.999Z,74
2017-02-07T00:12:42.039Z,74
2017-02-07T00:13:48.077Z,74
2017-02-07T00:14:54.096Z,74
2017-02-07T00:16:00.124Z,74
2017-02-07T00:17:04.383Z,74
2017-02-07T00:18:10.413Z,74
2017-02-07T00:19:16.424Z,74
2017-02-07T00:20:21.350Z,73
2017-02-07T00:21:27.370Z,73
2017-02-07T00:22:33.390Z,73
2017-02-07T00:23:39.407Z,73
2017-02-07T00:24:45.427Z,73
2017-02-07T00:25:51.453Z,73
2017-02-07T00:26:57.470Z,73
2017-02-07T00:28:03.490Z,73
2017-02-07T00:29:08.409Z,73
2017-02-07T00:30:14.436Z,73
2017-02-07T00:31:20.455Z,73
2017-02-07T00:32:26.648Z,73
2017-02-07T00:33:31.572Z,73
2017-02-07T00:34:36.933Z,73
2017-02-07T00:35:42.948Z,73
2017-02-07T00:36:48.962Z,73
2017-02-07T00:37:54.988Z,73
2017-02-07T00:38:59.902Z,73
2017-02-07T00:40:05.926Z,73
2017-02-07T00:41:11.286Z,73
2017-02-07T00:42:17.312Z,73
2017-02-07T00:43:23.332Z,72
2017-02-07T00:44:29.358Z,72
2017-02-07T00:45:35.382Z,72
2017-02-07T00:46:41.396Z,72
2017-02-07T00:47:47.415Z,72
2017-02-07T00:48:53.449Z,72
2017-02-07T00:49:59.460Z,72
2017-02-07T00:51:04.816Z,72
2017-02-07T00:52:10.840Z,72
2017-02-07T00:53:16.972Z,72
2017-02-07T00:54:21.885Z,72
2017-02-07T00:55:27.905Z,72
2017-02-07T00:56:33.923Z,72
2017-02-07T00:57:39.947Z,72
2017-02-07T00:58:45.961Z,72
2017-02-07T00:59:51.980Z,72
2017-02-07T01:00:58.476Z,72
2017-02-07T01:02:03.815Z,72
2017-02-07T01:03:09.839Z,72
2017-02-07T01:04:15.861Z,72
2017-02-07T01:05:21.888Z,72
2017-02-07T01:06:27.910Z,72
2017-02-07T01:07:33.924Z,72
2017-02-07T01:08:39.939Z,72
2017-02-07T01:09:46.469Z,72
2017-02-07T01:10:52.478Z,72
2017-02-07T01:11:58.512Z,72
2017-02-07T01:13:04.537Z,72
2017-02-07T01:14:10.552Z,72
2017-02-07T01:15:16.571Z,72
2017-02-07T01:16:22.593Z,72
2017-02-07T01:17:27.958Z,72
2017-02-07T01:18:34.565Z,71
2017-02-07T01:19:40.557Z,71
2017-02-07T01:20:45.932Z,71
2017-02-07T01:21:51.275Z,70
2017-02-07T01:22:57.297Z,70
2017-02-07T01:24:03.322Z,69
2017-02-07T01:25:08.687Z,69
2017-02-07T01:26:14.711Z,68
2017-02-07T01:27:19.633Z,68
2017-02-07T01:28:23.897Z,68
2017-02-07T01:29:29.920Z,67
2017-02-07T01:30:35.936Z,67
2017-02-07T01:31:41.958Z,67
2017-02-07T01:32:47.980Z,66
2017-02-07T01:33:54.003Z,66
2017-02-07T01:35:00.021Z,66
2017-02-07T01:36:04.942Z,66
2017-02-07T01:37:10.966Z,65
2017-02-07T01:38:16.985Z,65
2017-02-07T01:39:23.001Z,64
2017-02-07T01:40:29.026Z,63
2017-02-07T01:41:35.045Z,63
2017-02-07T01:42:41.060Z,63
2017-02-07T01:43:47.086Z,63
2017-02-07T01:44:52.473Z,62
2017-02-07T01:45:58.494Z,63
2017-02-07T01:47:04.515Z,63
2017-02-07T01:48:09.866Z,63
2017-02-07T01:49:15.888Z,62
2017-02-07T01:50:21.912Z,62
2017-02-07T01:51:27.931Z,62
2017-02-07T01:52:33.944Z,62
2017-02-07T01:53:39.972Z,62
2017-02-07T01:54:44.920Z,62
2017-02-07T01:55:49.812Z,62
2017-02-07T01:56:55.821Z,61
2017-02-07T01:58:01.849Z,61
2017-02-07T01:59:07.867Z,61
2017-02-07T02:00:13.891Z,61
2017-02-07T02:01:19.914Z,61
2017-02-07T02:02:25.941Z,61
2017-02-07T02:03:31.300Z,61
2017-02-07T02:04:36.654Z,61
2017-02-07T02:05:42.678Z,61
2017-02-07T02:06:48.118Z,61
2017-02-07T02:07:54.142Z,61
2017-02-07T02:08:59.606Z,61
2017-02-07T02:10:05.632Z,61
2017-02-07T02:11:11.652Z,61
2017-02-07T02:12:17.670Z,61
2017-02-07T02:13:23.688Z,61
2017-02-07T02:14:29.718Z,61
2017-02-07T02:15:35.733Z,61
2017-02-07T02:16:41.757Z,61
2017-02-07T02:17:47.773Z,61
2017-02-07T02:18:52.026Z,61
2017-02-07T02:19:58.044Z,61
2017-02-07T02:21:04.069Z,61
2017-02-07T02:22:10.085Z,61
2017-02-07T02:23:16.109Z,61
2017-02-07T02:24:22.130Z,61
2017-02-07T02:25:28.157Z,61
2017-02-07T02:26:33.510Z,61
2017-02-07T02:27:39.528Z,61
2017-02-07T02:28:45.549Z,61
2017-02-07T02:29:51.571Z,61
2017-02-07T02:30:57.594Z,61
2017-02-07T02:32:03.619Z,61
2017-02-07T02:33:09.643Z,61
2017-02-07T02:34:15.660Z,61
2017-02-07T02:35:21.020Z,61
2017-02-07T02:36:26.378Z,61
2017-02-07T02:37:31.303Z,61
2017-02-07T02:38:37.323Z,61
2017-02-07T02:39:43.340Z,62
2017-02-07T02:40:49.364Z,62
2017-02-07T02:41:54.288Z,62
2017-02-07T02:43:00.309Z,62
2017-02-07T02:44:05.665Z,62
2017-02-07T02:45:11.689Z,62
2017-02-07T02:46:17.715Z,62
2017-02-07T02:47:23.074Z,62
2017-02-07T02:48:28.421Z,62
2017-02-07T02:49:34.443Z,63
2017-02-07T02:50:40.463Z,63
2017-02-07T02:51:46.483Z,63
2017-02-07T02:52:52.499Z,63
2017-02-07T02:53:58.520Z,63
2017-02-07T02:55:04.546Z,63
2017-02-07T02:56:10.575Z,63
2017-02-07T02:57:16.597Z,63
2017-02-07T02:58:22.613Z,63
2017-02-07T02:59:28.631Z,63
2017-02-07T03:00:34.651Z,63
2017-02-07T03:01:40.667Z,63
2017-02-07T03:02:46.688Z,63
2017-02-07T03:03:52.709Z,63
2017-02-07T03:04:58.733Z,63
2017-02-07T03:06:04.753Z,63
2017-02-07T03:07:10.774Z,63
2017-02-07T03:08:16.796Z,63
2017-02-07T03:09:22.816Z,63
2017-02-07T03:10:28.832Z,63
2017-02-07T03:11:34.863Z,63
2017-02-07T03:12:40.232Z,63
2017-02-07T03:13:46.249Z,63
2017-02-07T03:14:51.165Z,63
2017-02-07T03:15:57.176Z,64
2017-02-07T03:17:03.206Z,64
2017-02-07T03:18:09.219Z,64
2017-02-07T03:19:15.244Z,64
2017-02-07T03:20:21.265Z,63
2017-02-07T03:21:27.294Z,63
2017-02-07T03:22:32.657Z,63
2017-02-07T03:23:38.020Z,64
2017-02-07T03:24:44.042Z,64
2017-02-07T03:25:50.060Z,64
2017-02-07T03:26:56.074Z,64
2017-02-07T03:28:02.089Z,64
2017-02-07T03:29:08.110Z,64
2017-02-07T03:30:14.138Z,64
2017-02-07T03:31:20.159Z,63
2017-02-07T03:32:26.174Z,63
2017-02-07T03:33:32.201Z,63
2017-02-07T03:34:38.213Z,63
2017-02-07T03:35:43.568Z,62
2017-02-07T03:36:49.583Z,62
2017-02-07T03:37:55.610Z,62
2017-02-07T03:39:00.964Z,62
2017-02-07T03:40:06.316Z,62
2017-02-07T03:41:11.234Z,62
2017-02-07T03:42:16.594Z,62
2017-02-07T03:43:22.613Z,62
2017-02-07T03:44:27.972Z,62
2017-02-07T03:45:33.994Z,62
2017-02-07T03:46:40.011Z,62
2017-02-07T03:47:46.021Z,62
2017-02-07T03:48:52.046Z,61
2017-02-07T03:49:58.062Z,61
2017-02-07T03:51:03.423Z,61
2017-02-07T03:52:09.437Z,61
2017-02-07T03:53:15.461Z,61
2017-02-07T03:54:21.472Z,61
2017-02-07T03:55:27.492Z,61
2017-02-07T03:56:32.188Z,61
2017-02-07T03:57:38.217Z,61
2017-02-07T03:58:43.143Z,62
2017-02-07T03:59:49.197Z,62
2017-02-07T04:00:55.183Z,62
2017-02-07T04:02:01.207Z,62
2017-02-07T04:03:05.904Z,62
2017-02-07T04:04:11.921Z,62
2017-02-07T04:05:16.838Z,62
2017-02-07T04:06:22.859Z,62
2017-02-07T04:07:28.879Z,62
2017-02-07T04:08:34.900Z,61
2017-02-07T04:09:40.923Z,61
2017-02-07T04:10:46.945Z,61
2017-02-07T04:11:52.959Z,61
2017-02-07T04:12:57.884Z,61
2017-02-07T04:14:03.906Z,61
2017-02-07T04:15:09.929Z,61
2017-02-07T04:16:15.942Z,61
2017-02-07T04:17:21.977Z,61
2017-02-07T04:18:27.995Z,61
2017-02-07T04:19:34.019Z,61
2017-02-07T04:20:39.369Z,61
2017-02-07T04:21:45.387Z,61
2017-02-07T04:22:51.406Z,61
2017-02-07T04:23:56.328Z,60
2017-02-07T04:25:01.675Z,60
2017-02-07T04:26:07.698Z,60
2017-02-07T04:27:12.618Z,60
2017-02-07T04:28:18.650Z,60
2017-02-07T04:29:24.661Z,60
2017-02-07T04:30:30.681Z,60
2017-02-07T04:31:36.702Z,60
2017-02-07T04:32:42.712Z,60
2017-02-07T04:33:47.629Z,60
2017-02-07T04:34:53.652Z,60
2017-02-07T04:35:59.669Z,60
2017-02-07T04:37:05.685Z,60
2017-02-07T04:38:11.713Z,60
2017-02-07T04:39:17.731Z,60
2017-02-07T04:40:23.754Z,60
2017-02-07T04:41:28.684Z,60
2017-02-07T04:42:34.703Z,60
2017-02-07T04:43:40.719Z,60
2017-02-07T04:44:46.746Z,60
2017-02-07T04:45:52.765Z,60
2017-02-07T04:46:58.785Z,60
2017-02-07T04:48:04.804Z,60
2017-02-07T04:49:10.831Z,60
2017-02-07T04:50:16.859Z,60
2017-02-07T04:51:22.864Z,60
2017-02-07T04:52:28.878Z,60
2017-02-07T04:53:33.804Z,60
2017-02-07T04:54:39.168Z,60
2017-02-07T04:55:44.520Z,60
2017-02-07T04:56:50.541Z,60
2017-02-07T04:57:56.570Z,60
2017-02-07T04:59:01.930Z,60
2017-02-07T05:00:07.950Z,60
2017-02-07T05:01:13.973Z,60
2017-02-07T05:02:19.985Z,60
2017-02-07T05:03:25.342Z,60
2017-02-07T05:04:31.357Z,60
2017-02-07T05:05:37.385Z,60
2017-02-07T05:06:43.405Z,60
2017-02-07T05:07:49.427Z,60
2017-02-07T05:08:55.449Z,60
2017-02-07T05:10:01.474Z,60
2017-02-07T05:11:06.825Z,60
2017-02-07T05:12:12.842Z,60
2017-02-07T05:13:18.200Z,60
2017-02-07T05:14:24.226Z,60
2017-02-07T05:15:30.249Z,60
2017-02-07T05:16:36.269Z,60
2017-02-07T05:17:42.292Z,60
2017-02-07T05:18:48.316Z,60
2017-02-07T05:19:53.669Z,60
2017-02-07T05:20:59.690Z,60
2017-02-07T05:22:05.050Z,60
2017-02-07T05:23:11.071Z,60
2017-02-07T05:24:15.995Z,60
2017-02-07T05:25:21.355Z,60
2017-02-07T05:26:27.381Z,60
2017-02-07T05:27:33.397Z,60
2017-02-07T05:28:39.415Z,60
2017-02-07T05:29:45.439Z,60
2017-02-07T05:30:51.465Z,61
2017-02-07T05:31:56.827Z,61
2017-02-07T05:33:02.840Z,61
2017-02-07T05:34:08.861Z,61
2017-02-07T05:35:14.213Z,61
2017-02-07T05:36:20.235Z,61
2017-02-07T05:37:26.255Z,61
2017-02-07T05:38:32.280Z,62
2017-02-07T05:39:38.295Z,62
2017-02-07T05:40:44.318Z,62
2017-02-07T05:41:50.345Z,62
2017-02-07T05:42:56.366Z,63
2017-02-07T05:44:02.380Z,63
2017-02-07T05:45:08.405Z,64
2017-02-07T05:46:14.427Z,64
2017-02-07T05:47:20.447Z,64
2017-02-07T05:48:26.458Z,65
2017-02-07T05:49:32.474Z,65
2017-02-07T05:50:38.508Z,65
2017-02-07T05:51:44.535Z,65
2017-02-07T05:52:50.552Z,65
2017-02-07T05:53:55.475Z,66
2017-02-07T05:55:01.491Z,66
2017-02-07T05:56:06.848Z,66
2017-02-07T05:57:12.859Z,66
2017-02-07T05:58:18.879Z,65
2017-02-07T05:59:24.906Z,65
2017-02-07T06:00:30.255Z,65
2017-02-07T06:01:35.177Z,65
2017-02-07T06:02:41.200Z,65
2017-02-07T06:03:47.220Z,65
2017-02-07T06:04:53.232Z,65
2017-02-07T06:05:59.257Z,65
2017-02-07T06:07:04.185Z,65
2017-02-07T06:08:10.233Z,66
2017-02-07T06:09:16.217Z,65
2017-02-07T06:10:22.237Z,65
2017-02-07T06:11:28.249Z,66
2017-02-07T06:12:34.271Z,66
2017-02-07T06:13:40.290Z,66
2017-02-07T06:14:46.316Z,66
2017-02-07T06:15:52.336Z,65
2017-02-07T06:16:58.351Z,65
2017-02-07T06:18:04.376Z,65
2017-02-07T06:19:10.391Z,65
2017-02-07T06:20:16.401Z,65
2017-02-07T06:21:22.427Z,65
2017-02-07T06:22:28.447Z,65
2017-02-07T06:23:34.462Z,65
2017-02-07T06:24:40.484Z,65
2017-02-07T06:25:44.748Z,65
2017-02-07T06:26:50.763Z,65
2017-02-07T06:27:56.779Z,65
2017-02-07T06:29:01.481Z,65
2017-02-07T06:30:07.492Z,65
2017-02-07T06:31:12.846Z,65
2017-02-07T06:32:18.867Z,65
2017-02-07T06:37:28.278Z,64
2017-02-07T06:38:34.296Z,64
2017-02-07T06:39:40.313Z,64
2017-02-07T06:40:46.322Z,64
2017-02-07T06:41:52.350Z,64
2017-02-07T06:42:58.363Z,64
2017-02-07T06:44:04.386Z,64
2017-02-07T06:45:10.417Z,64
2017-02-07T06:46:16.465Z,64
2017-02-07T06:47:22.513Z,64
2017-02-07T06:48:28.549Z,64
2017-02-07T06:49:34.589Z,64
2017-02-07T06:50:40.619Z,64
2017-02-07T06:51:46.649Z,65
2017-02-07T06:52:52.664Z,65
2017-02-07T06:53:57.603Z,65
2017-02-07T06:55:03.699Z,65
2017-02-07T06:56:09.029Z,66
2017-02-07T06:57:15.103Z,66
2017-02-07T06:58:21.224Z,66
2017-02-07T06:59:27.273Z,66
2017-02-07T07:00:33.319Z,66
2017-02-07T07:01:39.420Z,66
2017-02-07T07:02:45.471Z,66
2017-02-07T07:03:51.530Z,66
2017-02-07T07:04:57.543Z,66
2017-02-07T07:06:02.234Z,66
2017-02-07T07:07:08.288Z,66
2017-02-07T07:08:14.327Z,66
2017-02-07T07:09:20.351Z,66
2017-02-07T07:10:26.377Z,66
2017-02-07T07:11:32.445Z,66
2017-02-07T07:12:37.393Z,66
2017-02-07T07:13:43.428Z,66
2017-02-07T07:14:49.457Z,66
2017-02-07T07:15:55.472Z,66
2017-02-07T07:17:01.486Z,66
2017-02-07T07:18:07.542Z,66
2017-02-07T07:19:13.577Z,66
2017-02-07T07:20:19.580Z,66
2017-02-07T07:21:24.976Z,65
2017-02-07T07:22:31.261Z,65
2017-02-07T07:23:36.365Z,65
2017-02-07T07:24:42.408Z,65
2017-02-07T07:25:48.430Z,65
2017-02-07T07:26:54.474Z,65
2017-02-07T07:27:59.833Z,65
2017-02-07T07:29:05.879Z,65
2017-02-07T07:30:11.328Z,65
2017-02-07T07:31:17.348Z,64
2017-02-07T07:32:23.374Z,64
2017-02-07T07:33:29.388Z,64
2017-02-07T07:34:35.493Z,64
2017-02-07T07:35:41.501Z,64
2017-02-07T07:36:47.514Z,65
2017-02-07T07:37:53.536Z,65
2017-02-07T07:38:59.556Z,65
2017-02-07T07:40:05.576Z,64
2017-02-07T07:41:11.591Z,65
2017-02-07T07:42:16.963Z,65
2017-02-07T07:43:23.111Z,65
2017-02-07T07:44:28.459Z,65
2017-02-07T07:45:34.469Z,65
2017-02-07T07:46:39.394Z,65
2017-02-07T07:47:45.410Z,65
2017-02-07T07:48:51.427Z,65
2017-02-07T07:49:56.779Z,65
2017-02-07T07:51:02.807Z,65
2017-02-07T07:52:08.175Z,65
2017-02-07T07:53:13.518Z,65
2017-02-07T07:54:18.468Z,64
2017-02-07T07:55:24.482Z,64
2017-02-07T07:56:30.516Z,64
2017-02-07T07:57:35.873Z,64
2017-02-07T07:58:41.891Z,63
2017-02-07T07:59:48.003Z,63
2017-02-07T08:00:54.029Z,63
2017-02-07T08:02:00.036Z,63
2017-02-07T08:03:06.067Z,63
2017-02-07T08:04:12.082Z,63
2017-02-07T08:05:17.436Z,63
2017-02-07T08:06:23.466Z,63
2017-02-07T08:07:29.494Z,63
2017-02-07T08:08:35.546Z,64
2017-02-07T08:09:40.471Z,64
2017-02-07T08:10:46.498Z,63
2017-02-07T08:11:52.516Z,63
2017-02-07T08:12:58.553Z,63
2017-02-07T08:14:04.676Z,63
2017-02-07T08:15:10.705Z,63
2017-02-07T08:16:16.729Z,63
2017-02-07T08:17:22.743Z,62
2017-02-07T08:18:28.882Z,62
2017-02-07T08:19:34.902Z,62
2017-02-07T08:20:39.818Z,63
2017-02-07T08:21:44.890Z,63
2017-02-07T08:22:50.905Z,62
2017-02-07T08:23:56.932Z,62
2017-02-07T08:25:02.948Z,62
2017-02-07T08:26:08.977Z,62
2017-02-07T08:27:14.992Z,62
2017-02-07T08:28:21.015Z,62
2017-02-07T08:29:25.280Z,63
2017-02-07T08:30:30.630Z,63
2017-02-07T08:31:35.982Z,63
2017-02-07T08:32:42.009Z,63
2017-02-07T08:33:48.023Z,63
2017-02-07T08:34:54.041Z,63
2017-02-07T08:35:58.962Z,63
2017-02-07T08:37:04.320Z,63
2017-02-07T08:38:10.352Z,63
2017-02-07T08:39:16.372Z,62
2017-02-07T08:40:22.382Z,62
2017-02-07T08:41:27.304Z,62
2017-02-07T08:42:32.665Z,62
2017-02-07T08:43:38.688Z,62
2017-02-07T08:44:44.717Z,62
2017-02-07T08:45:50.072Z,61
2017-02-07T08:46:56.079Z,61
2017-02-07T08:48:02.108Z,62
2017-02-07T08:49:07.460Z,61
2017-02-07T08:50:12.827Z,61
2017-02-07T08:51:18.843Z,61
2017-02-07T08:52:24.867Z,61
2017-02-07T08:53:30.888Z,61
2017-02-07T08:54:36.908Z,61
2017-02-07T08:55:41.817Z,61
2017-02-07T08:56:47.836Z,61
2017-02-07T08:57:53.856Z,61
2017-02-07T08:58:59.873Z,61
2017-02-07T09:00:05.891Z,61
2017-02-07T09:01:11.947Z,61
2017-02-07T09:02:17.942Z,60
2017-02-07T09:03:23.975Z,60
2017-02-07T09:04:29.994Z,60
2017-02-07T09:05:36.013Z,60
2017-02-07T09:06:42.038Z,60
2017-02-07T09:07:48.047Z,60
2017-02-07T09:08:54.066Z,60
2017-02-07T09:10:00.087Z,60
2017-02-07T09:11:05.005Z,60
2017-02-07T09:12:11.022Z,60
2017-02-07T09:13:17.042Z,60
2017-02-07T09:14:23.065Z,60
2017-02-07T09:15:29.094Z,59
2017-02-07T09:16:34.447Z,59
2017-02-07T09:17:39.811Z,59
2017-02-07T09:18:44.736Z,59
2017-02-07T09:19:50.757Z,59
2017-02-07T09:20:55.699Z,59
2017-02-07T09:22:01.021Z,59
2017-02-07T09:23:07.044Z,59
2017-02-07T09:24:13.062Z,59
2017-02-07T09:25:18.418Z,59
2017-02-07T09:26:24.433Z,59
2017-02-07T09:27:30.450Z,59
2017-02-07T09:28:36.479Z,59
2017-02-07T09:29:42.505Z,59
2017-02-07T09:30:46.766Z,59
2017-02-07T09:31:52.787Z,58
2017-02-07T09:32:58.801Z,58
2017-02-07T09:34:04.830Z,58
2017-02-07T09:35:10.187Z,58
2017-02-07T09:36:16.205Z,58
2017-02-07T09:37:21.563Z,58
2017-02-07T09:38:27.584Z,59
2017-02-07T09:39:33.604Z,58
2017-02-07T09:40:39.621Z,58
2017-02-07T09:41:45.637Z,58
2017-02-07T09:42:50.561Z,58
2017-02-07T09:43:56.587Z,58
2017-02-07T09:45:01.945Z,58
2017-02-07T09:46:06.197Z,58
2017-02-07T09:47:12.217Z,58
2017-02-07T09:48:17.571Z,58
2017-02-07T09:49:23.605Z,58
2017-02-07T09:50:29.617Z,58
2017-02-07T09:51:35.639Z,59
2017-02-07T09:52:41.655Z,59
2017-02-07T09:53:47.677Z,59
2017-02-07T09:54:53.693Z,59
2017-02-07T09:55:59.715Z,59
2017-02-07T09:57:05.075Z,59
2017-02-07T12:52:42.109Z,58
2017-02-07T12:53:48.404Z,56
2017-02-07T12:54:54.765Z,57
2017-02-07T12:56:00.292Z,57
2017-02-07T12:57:06.619Z,58
2017-02-07T12:58:12.049Z,58
2017-02-07T12:59:18.355Z,58
2017-02-07T13:00:24.725Z,59
2017-02-07T13:01:31.202Z,59
2017-02-07T13:02:36.578Z,59
2017-02-07T13:03:42.866Z,59
2017-02-07T13:04:48.983Z,59
2017-02-07T13:05:55.392Z,59
2017-02-07T13:07:01.663Z,59
2017-02-07T13:08:08.308Z,60
2017-02-07T13:09:14.546Z,60
2017-02-07T13:10:20.831Z,60
2017-02-07T13:11:27.094Z,60
2017-02-07T13:12:31.762Z,60
2017-02-07T13:13:37.929Z,59
2017-02-07T13:14:44.242Z,59
2017-02-07T13:15:49.294Z,59
2017-02-07T13:16:55.587Z,59
2017-02-07T13:18:01.910Z,59
2017-02-07T13:19:08.010Z,59
2017-02-07T13:20:12.938Z,59
2017-02-07T13:21:18.643Z,59
2017-02-07T13:22:23.811Z,59
2017-02-07T13:23:29.820Z,59
2017-02-07T13:24:35.132Z,59
2017-02-07T13:25:41.356Z,59
2017-02-07T13:26:46.671Z,59
2017-02-07T13:27:51.707Z,59
2017-02-07T13:28:59.661Z,58
2017-02-07T13:30:05.094Z,58
2017-02-07T13:31:13.341Z,58
2017-02-07T13:32:19.814Z,58
2017-02-07T13:33:25.816Z,58
2017-02-07T13:34:34.620Z,58
2017-02-07T13:35:43.449Z,58
2017-02-07T13:36:48.821Z,58
2017-02-07T13:37:56.488Z,58
2017-02-07T13:39:01.689Z,58
2017-02-07T13:40:07.655Z,58
2017-02-07T13:41:14.174Z,58
2017-02-07T13:42:20.104Z,58
2017-02-07T13:43:26.134Z,57
2017-02-07T13:44:32.962Z,57
2017-02-07T13:45:41.895Z,57
2017-02-07T13:46:48.899Z,57
2017-02-07T13:47:54.348Z,57
2017-02-07T13:49:01.864Z,56
2017-02-07T13:50:06.875Z,56
2017-02-07T13:51:11.660Z,56
2017-02-07T13:52:17.709Z,56
2017-02-07T13:53:23.661Z,56
2017-02-07T13:54:29.678Z,56
2017-02-07T13:55:35.024Z,56
2017-02-07T13:56:41.027Z,56
2017-02-07T13:57:45.939Z,56
2017-02-07T13:58:50.889Z,56
2017-02-07T13:59:56.887Z,56
2017-02-07T14:01:02.893Z,56
2017-02-07T14:02:08.886Z,56
2017-02-07T14:03:14.893Z,56
2017-02-07T14:04:20.885Z,57
2017-02-07T14:05:25.773Z,57
2017-02-07T14:06:31.787Z,57
2017-02-07T14:07:37.811Z,57
2017-02-07T14:08:43.135Z,57
2017-02-07T14:09:48.712Z,57
2017-02-07T14:10:54.715Z,56
2017-02-07T14:12:00.716Z,56
2017-02-07T14:13:06.711Z,56
2017-02-07T14:14:12.049Z,56
2017-02-07T14:15:18.053Z,56
2017-02-07T14:16:24.041Z,55
2017-02-07T14:17:30.040Z,55
2017-02-07T14:18:36.034Z,55
2017-02-07T14:19:41.372Z,55
2017-02-07T14:20:46.270Z,55
2017-02-07T14:21:51.601Z,55
2017-02-07T14:22:57.601Z,55
2017-02-07T14:24:02.943Z,55
2017-02-07T14:25:08.940Z,55
2017-02-07T14:26:14.935Z,55
2017-02-07T14:27:19.837Z,55
2017-02-07T14:28:25.172Z,55
2017-02-07T14:29:31.171Z,55
2017-02-07T14:30:37.337Z,55
2017-02-07T14:31:42.684Z,54
2017-02-07T14:32:48.683Z,54
2017-02-07T14:33:54.680Z,54
2017-02-07T14:35:00.683Z,54
2017-02-07T14:36:06.023Z,54
2017-02-07T14:37:12.012Z,54
2017-02-07T14:38:18.008Z,54
2017-02-07T14:39:24.001Z,54
2017-02-07T14:40:29.345Z,54
2017-02-07T14:41:35.104Z,54
2017-02-07T14:42:40.698Z,54
2017-02-07T14:43:46.027Z,54
2017-02-07T14:44:51.360Z,54
2017-02-07T14:45:57.357Z,54
2017-02-07T14:47:03.363Z,54
2017-02-07T14:48:08.259Z,54
2017-02-07T14:49:14.256Z,54
2017-02-07T14:50:20.245Z,54
2017-02-07T14:51:26.255Z,54
2017-02-07T14:52:32.260Z,54
2017-02-07T14:53:38.269Z,53
2017-02-07T14:54:43.164Z,53
2017-02-07T14:55:49.168Z,53
2017-02-07T14:56:55.166Z,53
2017-02-07T14:57:58.754Z,53
2017-02-07T14:59:04.736Z,53
2017-02-07T15:00:10.737Z,53
2017-02-07T15:01:16.073Z,53
2017-02-07T15:02:22.067Z,53
2017-02-07T15:03:28.072Z,53
2017-02-07T15:04:34.066Z,53
2017-02-07T15:05:38.744Z,53
2017-02-07T15:06:44.758Z,53
2017-02-07T15:07:50.752Z,53
2017-02-07T15:08:55.668Z,53
2017-02-07T15:10:01.661Z,53
2017-02-07T15:11:07.647Z,53
2017-02-07T15:12:13.649Z,53
2017-02-07T15:13:19.653Z,52
2017-02-07T15:14:24.981Z,52
2017-02-07T15:15:30.976Z,52
2017-02-07T15:16:35.871Z,52
2017-02-07T15:17:41.879Z,51
2017-02-07T15:18:47.868Z,51
2017-02-07T15:19:52.771Z,51
2017-02-07T15:20:58.776Z,51
2017-02-07T15:22:04.779Z,51
2017-02-07T15:23:10.769Z,51
2017-02-07T15:24:16.767Z,51
2017-02-07T15:25:22.768Z,51
2017-02-07T15:26:28.754Z,51
2017-02-07T15:27:34.761Z,51
2017-02-07T15:28:40.763Z,51
2017-02-07T15:29:46.759Z,51
2017-02-07T15:30:52.749Z,51
2017-02-07T15:31:58.094Z,51
2017-02-07T15:33:04.088Z,51
2017-02-07T15:34:09.429Z,51
2017-02-07T15:35:15.425Z,51
2017-02-07T15:36:21.429Z,51
2017-02-07T15:37:27.434Z,51
2017-02-07T15:38:33.436Z,50
2017-02-07T15:39:38.783Z,50
2017-02-07T15:40:44.141Z,50
2017-02-07T15:41:48.378Z,50
2017-02-07T15:42:54.377Z,50
2017-02-07T15:44:00.371Z,50
2017-02-07T15:45:06.387Z,50
2017-02-07T15:46:12.389Z,50
2017-02-07T15:47:18.410Z,50
2017-02-07T15:48:24.404Z,50
2017-02-07T15:49:29.729Z,50
2017-02-07T15:50:35.723Z,49
2017-02-07T15:51:41.718Z,48
2017-02-07T15:52:46.611Z,47
2017-02-07T15:53:52.643Z,47
2017-02-07T15:54:57.520Z,47
2017-02-07T15:56:03.517Z,46
2017-02-07T15:57:09.528Z,45
2017-02-07T15:58:15.528Z,45
2017-02-07T15:59:21.526Z,45
2017-02-07T16:00:27.563Z,44
2017-02-07T16:01:33.539Z,44
2017-02-07T16:02:38.878Z,44
2017-02-07T16:03:44.900Z,44
2017-02-07T16:04:50.877Z,44
2017-02-07T16:05:56.215Z,44
2017-02-07T16:07:02.231Z,45
2017-02-07T16:08:08.226Z,44
2017-02-07T16:09:13.128Z,44
2017-02-07T16:10:18.473Z,44
2017-02-07T16:11:24.482Z,44
2017-02-07T16:12:30.475Z,44
2017-02-07T16:13:36.477Z,44
2017-02-07T16:14:42.477Z,44
2017-02-07T16:15:48.532Z,44
2017-02-07T16:16:54.555Z,44
2017-02-07T16:17:59.505Z,44
2017-02-07T16:19:03.699Z,44
2017-02-07T16:20:08.589Z,44
2017-02-07T16:21:12.913Z,44
2017-02-07T16:22:18.904Z,44
2017-02-07T16:23:24.936Z,43
2017-02-07T16:24:31.016Z,43
2017-02-07T16:25:35.690Z,42
2017-02-07T16:26:41.702Z,42
2017-02-07T16:27:47.028Z,43
2017-02-07T16:28:53.090Z,42
2017-02-07T16:29:59.117Z,42
2017-02-07T16:31:05.120Z,43
2017-02-07T16:32:11.120Z,43
2017-02-07T16:33:17.134Z,43
2017-02-07T16:34:22.510Z,42
2017-02-07T16:35:28.518Z,42
2017-02-07T16:36:33.868Z,42
2017-02-07T16:37:39.207Z,42
2017-02-07T16:38:43.436Z,42
2017-02-07T16:39:48.117Z,42
2017-02-07T16:40:53.065Z,42
2017-02-07T16:41:59.059Z,42
2017-02-07T16:43:05.088Z,42
2017-02-07T16:44:11.080Z,43
2017-02-07T16:45:17.075Z,44
2017-02-07T16:46:23.078Z,44
2017-02-07T16:47:29.069Z,44
2017-02-07T16:48:35.094Z,43
2017-02-07T16:49:41.074Z,43
2017-02-07T16:50:46.471Z,43
2017-02-07T16:51:51.834Z,43
2017-02-07T16:52:57.821Z,43
2017-02-07T16:54:03.818Z,43
2017-02-07T16:55:09.823Z,44
2017-02-07T16:56:15.820Z,44
2017-02-07T16:57:21.855Z,44
2017-02-07T16:58:27.851Z,44
2017-02-07T16:59:33.193Z,44
2017-02-07T17:00:39.195Z,44
2017-02-07T17:01:45.199Z,44
2017-02-07T17:02:51.187Z,44
2017-02-07T17:03:57.201Z,45
2017-02-07T17:05:02.108Z,45
2017-02-07T17:06:07.433Z,45
2017-02-07T17:07:13.425Z,45
2017-02-07T17:08:19.427Z,45
2017-02-07T17:09:25.430Z,45
2017-02-07T17:10:31.433Z,45
2017-02-07T17:11:37.427Z,45
2017-02-07T17:12:42.758Z,45
2017-02-07T17:13:48.093Z,45
2017-02-07T17:14:54.093Z,45
2017-02-07T17:16:00.258Z,45
2017-02-07T17:17:05.598Z,45
2017-02-07T17:18:11.601Z,45
2017-02-07T17:19:17.602Z,45
2017-02-07T17:20:23.804Z,45
2017-02-07T17:21:29.803Z,45
2017-02-07T17:22:35.803Z,45
2017-02-07T17:23:41.849Z,45
2017-02-07T17:24:47.863Z,44
2017-02-07T17:25:53.197Z,44
2017-02-07T17:26:59.200Z,44
2017-02-07T17:28:05.197Z,44
2017-02-07T17:29:11.200Z,44
2017-02-07T17:30:17.206Z,44
2017-02-07T17:31:23.206Z,44
2017-02-07T17:32:28.107Z,44
2017-02-07T17:33:34.105Z,44
2017-02-07T17:34:40.109Z,44
2017-02-07T17:35:46.103Z,44
2017-02-07T17:36:52.107Z,44
2017-02-07T17:37:57.464Z,44
2017-02-07T17:39:03.443Z,44
2017-02-07T17:40:08.982Z,44
2017-02-07T17:41:13.880Z,45
2017-02-07T17:42:19.888Z,45
2017-02-07T17:43:25.887Z,45
2017-02-07T17:44:31.882Z,44
2017-02-07T17:45:38.203Z,44
2017-02-07T17:46:44.205Z,44
2017-02-07T17:47:50.201Z,44
2017-02-07T17:48:56.204Z,45
2017-02-07T17:50:02.211Z,45
2017-02-07T17:51:07.544Z,44
2017-02-07T17:52:12.886Z,44
2017-02-07T17:53:18.235Z,44
2017-02-07T17:54:23.140Z,44
2017-02-07T17:55:29.137Z,44
2017-02-07T17:56:35.136Z,44
2017-02-07T17:57:41.135Z,44
2017-02-07T17:58:47.130Z,43
2017-02-07T17:59:53.145Z,43
2017-02-07T18:00:59.144Z,43
2017-02-07T18:02:03.814Z,43
2017-02-07T18:03:09.825Z,43
2017-02-07T18:04:15.823Z,43
2017-02-07T18:05:21.820Z,44
2017-02-07T18:06:26.056Z,44
2017-02-07T18:07:32.070Z,44
2017-02-07T18:08:37.401Z,44
2017-02-07T18:09:42.293Z,44
2017-02-07T18:10:48.294Z,44
2017-02-07T18:11:54.311Z,44
2017-02-07T18:13:00.308Z,44
2017-02-07T18:14:06.308Z,45
2017-02-07T18:15:12.322Z,44
2017-02-07T18:16:18.315Z,44
2017-02-07T18:17:24.315Z,44
2017-02-07T18:18:29.649Z,44
2017-02-07T18:19:35.652Z,44
2017-02-07T18:20:40.555Z,44
2017-02-07T18:21:46.542Z,44
2017-02-07T18:22:52.548Z,44
2017-02-07T18:23:58.549Z,44
2017-02-07T18:25:03.884Z,44
2017-02-07T18:26:14.808Z,43
2017-02-07T18:27:20.811Z,42
2017-02-07T18:28:26.808Z,42
2017-02-07T18:29:32.814Z,42
2017-02-07T18:30:38.807Z,42
2017-02-07T18:31:43.730Z,42
2017-02-07T18:32:49.719Z,42
2017-02-07T18:33:54.617Z,43
2017-02-07T18:35:00.608Z,43
2017-02-07T18:36:06.621Z,43
2017-02-07T18:37:11.519Z,42